sensor_id;sensor_type;location;lat;lon;timestamp;pressure;altitude;pressure_sealevel;temperature;humidity
82668;BME280;72691;51.374;-0.176;2024-01-10T00:00:55;102615.32;;;5.74;37.96
82668;BME280;72691;51.374;-0.176;2024-01-10T00:03:20;102612.56;;;6.17;37.82
82668;BME280;72691;51.374;-0.176;2024-01-10T00:05:46;102614.64;;;5.41;38.67
82668;BME280;72691;51.374;-0.176;2024-01-10T00:08:12;102612.91;;;5.28;38.74
82668;BME280;72691;51.374;-0.176;2024-01-10T00:10:37;102609.66;;;5.41;39.36
82668;BME280;72691;51.374;-0.176;2024-01-10T00:13:03;102607.66;;;4.60;40.54
82668;BME280;72691;51.374;-0.176;2024-01-10T00:15:28;102609.56;;;4.41;40.81
82668;BME280;72691;51.374;-0.176;2024-01-10T00:17:54;102613.69;;;4.37;40.02
82668;BME280;72691;51.374;-0.176;2024-01-10T00:20:20;102608.60;;;4.62;40.52
82668;BME280;72691;51.374;-0.176;2024-01-10T00:22:44;102608.23;;;5.17;39.88
82668;BME280;72691;51.374;-0.176;2024-01-10T00:25:10;102607.96;;;5.25;39.81
82668;BME280;72691;51.374;-0.176;2024-01-10T00:27:35;102607.70;;;5.23;39.66
82668;BME280;72691;51.374;-0.176;2024-01-10T00:30:01;102606.15;;;5.55;39.19
82668;BME280;72691;51.374;-0.176;2024-01-10T00:32:26;102605.55;;;5.76;38.77
82668;BME280;72691;51.374;-0.176;2024-01-10T00:34:52;102608.57;;;5.19;38.92
82668;BME280;72691;51.374;-0.176;2024-01-10T00:37:17;102609.44;;;5.81;39.42
82668;BME280;72691;51.374;-0.176;2024-01-10T00:39:42;102609.63;;;4.04;41.34
82668;BME280;72691;51.374;-0.176;2024-01-10T00:42:08;102608.56;;;5.17;39.79
82668;BME280;72691;51.374;-0.176;2024-01-10T00:44:39;102607.76;;;5.53;39.18
82668;BME280;72691;51.374;-0.176;2024-01-10T00:46:59;102608.79;;;4.93;39.98
82668;BME280;72691;51.374;-0.176;2024-01-10T00:49:25;102605.86;;;5.50;39.16
82668;BME280;72691;51.374;-0.176;2024-01-10T00:51:51;102606.93;;;4.95;39.33
82668;BME280;72691;51.374;-0.176;2024-01-10T00:54:16;102605.50;;;5.46;39.20
82668;BME280;72691;51.374;-0.176;2024-01-10T00:56:41;102602.36;;;5.76;38.81
82668;BME280;72691;51.374;-0.176;2024-01-10T00:59:07;102601.37;;;5.44;39.19
82668;BME280;72691;51.374;-0.176;2024-01-10T01:01:32;102597.48;;;4.89;40.04
82668;BME280;72691;51.374;-0.176;2024-01-10T01:03:58;102596.94;;;4.96;39.94
82668;BME280;72691;51.374;-0.176;2024-01-10T01:06:23;102596.56;;;4.92;40.15
82668;BME280;72691;51.374;-0.176;2024-01-10T01:08:49;102598.16;;;5.16;39.55
82668;BME280;72691;51.374;-0.176;2024-01-10T01:11:14;102599.42;;;5.51;39.27
82668;BME280;72691;51.374;-0.176;2024-01-10T01:13:40;102600.08;;;5.86;38.71
82668;BME280;72691;51.374;-0.176;2024-01-10T01:16:06;102601.09;;;5.11;39.74
82668;BME280;72691;51.374;-0.176;2024-01-10T01:18:31;102602.11;;;5.21;39.58
82668;BME280;72691;51.374;-0.176;2024-01-10T01:20:56;102602.04;;;4.21;40.92
82668;BME280;72691;51.374;-0.176;2024-01-10T01:23:23;102593.96;;;4.51;41.09
82668;BME280;72691;51.374;-0.176;2024-01-10T01:25:48;102595.11;;;3.60;42.87
82668;BME280;72691;51.374;-0.176;2024-01-10T01:28:13;102596.15;;;3.62;42.28
82668;BME280;72691;51.374;-0.176;2024-01-10T01:30:38;102591.97;;;3.86;42.83
82668;BME280;72691;51.374;-0.176;2024-01-10T01:33:04;102588.60;;;4.28;41.18
82668;BME280;72691;51.374;-0.176;2024-01-10T01:35:29;102590.75;;;4.54;41.19
82668;BME280;72691;51.374;-0.176;2024-01-10T01:37:55;102595.97;;;3.91;42.01
82668;BME280;72691;51.374;-0.176;2024-01-10T01:40:21;102596.79;;;4.22;42.11
82668;BME280;72691;51.374;-0.176;2024-01-10T01:42:47;102599.75;;;4.10;42.49
82668;BME280;72691;51.374;-0.176;2024-01-10T01:45:13;102593.44;;;4.70;41.39
82668;BME280;72691;51.374;-0.176;2024-01-10T01:47:38;102593.71;;;4.57;41.38
82668;BME280;72691;51.374;-0.176;2024-01-10T01:50:08;102595.29;;;4.10;42.08
82668;BME280;72691;51.374;-0.176;2024-01-10T01:52:30;102591.08;;;4.31;41.53
82668;BME280;72691;51.374;-0.176;2024-01-10T01:54:54;102593.34;;;4.59;41.14
82668;BME280;72691;51.374;-0.176;2024-01-10T01:57:19;102592.77;;;5.14;40.43
82668;BME280;72691;51.374;-0.176;2024-01-10T01:59:45;102588.50;;;4.97;40.43
82668;BME280;72691;51.374;-0.176;2024-01-10T02:02:11;102590.10;;;4.91;40.94
82668;BME280;72691;51.374;-0.176;2024-01-10T02:04:36;102589.93;;;4.58;41.04
82668;BME280;72691;51.374;-0.176;2024-01-10T02:07:01;102587.49;;;4.48;40.60
82668;BME280;72691;51.374;-0.176;2024-01-10T02:09:27;102588.84;;;5.04;40.29
82668;BME280;72691;51.374;-0.176;2024-01-10T02:11:53;102584.01;;;4.55;40.66
82668;BME280;72691;51.374;-0.176;2024-01-10T02:14:18;102587.94;;;3.60;42.53
82668;BME280;72691;51.374;-0.176;2024-01-10T02:16:43;102584.20;;;4.05;41.72
82668;BME280;72691;51.374;-0.176;2024-01-10T02:19:19;102585.97;;;3.79;42.08
82668;BME280;72691;51.374;-0.176;2024-01-10T02:21:34;102587.18;;;4.24;41.61
82668;BME280;72691;51.374;-0.176;2024-01-10T02:24:00;102588.60;;;4.34;41.46
82668;BME280;72691;51.374;-0.176;2024-01-10T02:26:26;102585.33;;;5.34;40.01
82668;BME280;72691;51.374;-0.176;2024-01-10T02:28:51;102582.30;;;5.05;39.37
82668;BME280;72691;51.374;-0.176;2024-01-10T02:31:17;102583.19;;;5.56;39.34
82668;BME280;72691;51.374;-0.176;2024-01-10T02:33:42;102580.94;;;4.71;40.43
82668;BME280;72691;51.374;-0.176;2024-01-10T02:36:08;102581.28;;;3.96;41.25
82668;BME280;72691;51.374;-0.176;2024-01-10T02:38:33;102577.49;;;5.46;39.64
82668;BME280;72691;51.374;-0.176;2024-01-10T02:40:59;102578.43;;;5.09;39.34
82668;BME280;72691;51.374;-0.176;2024-01-10T02:43:24;102573.52;;;4.24;40.20
82668;BME280;72691;51.374;-0.176;2024-01-10T02:45:50;102572.43;;;4.80;39.72
82668;BME280;72691;51.374;-0.176;2024-01-10T02:48:15;102567.42;;;5.31;39.34
82668;BME280;72691;51.374;-0.176;2024-01-10T02:50:41;102563.96;;;4.96;39.72
82668;BME280;72691;51.374;-0.176;2024-01-10T02:53:06;102567.29;;;5.19;39.83
82668;BME280;72691;51.374;-0.176;2024-01-10T02:55:32;102564.30;;;5.19;39.50
82668;BME280;72691;51.374;-0.176;2024-01-10T02:57:58;102563.47;;;4.90;40.01
82668;BME280;72691;51.374;-0.176;2024-01-10T03:00:28;102560.58;;;4.81;39.72
82668;BME280;72691;51.374;-0.176;2024-01-10T03:02:49;102563.60;;;3.53;41.96
82668;BME280;72691;51.374;-0.176;2024-01-10T03:05:14;102558.64;;;4.34;41.19
82668;BME280;72691;51.374;-0.176;2024-01-10T03:07:40;102550.97;;;4.18;40.33
82668;BME280;72691;51.374;-0.176;2024-01-10T03:10:06;102551.21;;;4.39;40.51
82668;BME280;72691;51.374;-0.176;2024-01-10T03:12:31;102547.30;;;4.76;40.66
82668;BME280;72691;51.374;-0.176;2024-01-10T03:14:56;102550.57;;;4.60;40.63
82668;BME280;72691;51.374;-0.176;2024-01-10T03:17:21;102550.02;;;4.37;40.22
82668;BME280;72691;51.374;-0.176;2024-01-10T03:19:48;102550.60;;;5.14;40.01
82668;BME280;72691;51.374;-0.176;2024-01-10T03:22:14;102550.77;;;5.33;39.83
82668;BME280;72691;51.374;-0.176;2024-01-10T03:24:38;102548.14;;;5.08;39.96
82668;BME280;72691;51.374;-0.176;2024-01-10T03:27:04;102549.29;;;4.27;41.40
82668;BME280;72691;51.374;-0.176;2024-01-10T03:29:30;102541.31;;;5.06;40.13
82668;BME280;72691;51.374;-0.176;2024-01-10T03:31:55;102542.10;;;4.91;39.68
82668;BME280;72691;51.374;-0.176;2024-01-10T03:34:21;102540.40;;;5.35;39.40
82668;BME280;72691;51.374;-0.176;2024-01-10T03:36:46;102536.73;;;4.74;40.05
82668;BME280;72691;51.374;-0.176;2024-01-10T03:39:12;102532.92;;;4.55;40.83
82668;BME280;72691;51.374;-0.176;2024-01-10T03:41:37;102533.59;;;5.38;39.69
82668;BME280;72691;51.374;-0.176;2024-01-10T03:44:03;102533.53;;;4.66;39.90
82668;BME280;72691;51.374;-0.176;2024-01-10T03:46:28;102529.43;;;4.23;40.66
82668;BME280;72691;51.374;-0.176;2024-01-10T03:48:54;102530.04;;;4.65;39.91
82668;BME280;72691;51.374;-0.176;2024-01-10T03:51:19;102527.27;;;4.80;40.37
82668;BME280;72691;51.374;-0.176;2024-01-10T03:53:45;102529.87;;;4.81;40.20
82668;BME280;72691;51.374;-0.176;2024-01-10T03:56:11;102530.00;;;4.00;40.83
82668;BME280;72691;51.374;-0.176;2024-01-10T03:58:36;102531.63;;;4.98;39.87
82668;BME280;72691;51.374;-0.176;2024-01-10T04:01:04;102527.62;;;4.87;39.64
82668;BME280;72691;51.374;-0.176;2024-01-10T04:03:27;102527.92;;;5.36;39.61
82668;BME280;72691;51.374;-0.176;2024-01-10T04:05:52;102526.84;;;4.32;40.66
82668;BME280;72691;51.374;-0.176;2024-01-10T04:08:18;102525.49;;;4.88;40.14
82668;BME280;72691;51.374;-0.176;2024-01-10T04:10:43;102525.55;;;3.65;41.52
82668;BME280;72691;51.374;-0.176;2024-01-10T04:13:09;102527.63;;;4.73;41.03
82668;BME280;72691;51.374;-0.176;2024-01-10T04:15:35;102528.00;;;4.39;41.16
82668;BME280;72691;51.374;-0.176;2024-01-10T04:18:00;102528.65;;;3.64;41.98
82668;BME280;72691;51.374;-0.176;2024-01-10T04:20:26;102526.45;;;4.15;42.36
82668;BME280;72691;51.374;-0.176;2024-01-10T04:22:53;102528.99;;;3.81;42.63
82668;BME280;72691;51.374;-0.176;2024-01-10T04:25:17;102524.49;;;3.82;42.41
82668;BME280;72691;51.374;-0.176;2024-01-10T04:27:43;102524.72;;;3.71;42.80
82668;BME280;72691;51.374;-0.176;2024-01-10T04:30:09;102524.68;;;3.81;43.09
82668;BME280;72691;51.374;-0.176;2024-01-10T04:32:34;102527.43;;;3.71;43.56
82668;BME280;72691;51.374;-0.176;2024-01-10T04:34:59;102527.79;;;3.50;43.71
82668;BME280;72691;51.374;-0.176;2024-01-10T04:37:25;102522.94;;;3.71;43.24
82668;BME280;72691;51.374;-0.176;2024-01-10T04:39:50;102523.66;;;4.08;42.89
82668;BME280;72691;51.374;-0.176;2024-01-10T04:42:16;102523.82;;;3.93;42.75
82668;BME280;72691;51.374;-0.176;2024-01-10T04:44:41;102520.76;;;4.50;42.06
82668;BME280;72691;51.374;-0.176;2024-01-10T04:47:07;102520.85;;;4.71;41.52
82668;BME280;72691;51.374;-0.176;2024-01-10T04:49:32;102521.51;;;4.50;41.94
82668;BME280;72691;51.374;-0.176;2024-01-10T04:51:58;102522.83;;;4.88;40.49
82668;BME280;72691;51.374;-0.176;2024-01-10T04:54:23;102524.21;;;5.22;40.65
82668;BME280;72691;51.374;-0.176;2024-01-10T04:56:50;102527.32;;;5.42;40.56
82668;BME280;72691;51.374;-0.176;2024-01-10T04:59:14;102526.17;;;4.50;41.24
82668;BME280;72691;51.374;-0.176;2024-01-10T05:01:40;102525.18;;;4.85;40.84
82668;BME280;72691;51.374;-0.176;2024-01-10T05:04:05;102527.20;;;4.94;40.58
82668;BME280;72691;51.374;-0.176;2024-01-10T05:06:31;102525.77;;;4.39;41.45
82668;BME280;72691;51.374;-0.176;2024-01-10T05:08:56;102526.19;;;5.12;40.42
82668;BME280;72691;51.374;-0.176;2024-01-10T05:11:24;102523.62;;;3.67;42.09
82668;BME280;72691;51.374;-0.176;2024-01-10T05:13:48;102520.56;;;4.50;41.72
82668;BME280;72691;51.374;-0.176;2024-01-10T05:16:13;102524.86;;;4.43;42.15
82668;BME280;72691;51.374;-0.176;2024-01-10T05:18:39;102522.40;;;3.87;43.40
82668;BME280;72691;51.374;-0.176;2024-01-10T05:21:04;102521.47;;;2.78;44.99
82668;BME280;72691;51.374;-0.176;2024-01-10T05:23:30;102522.08;;;2.91;45.62
82668;BME280;72691;51.374;-0.176;2024-01-10T05:25:55;102514.55;;;3.20;44.64
82668;BME280;72691;51.374;-0.176;2024-01-10T05:28:21;102510.01;;;4.62;42.15
82668;BME280;72691;51.374;-0.176;2024-01-10T05:30:46;102511.91;;;2.46;45.29
82668;BME280;72691;51.374;-0.176;2024-01-10T05:33:12;102509.67;;;2.48;45.87
82668;BME280;72691;51.374;-0.176;2024-01-10T05:35:38;102510.01;;;2.54;46.13
82668;BME280;72691;51.374;-0.176;2024-01-10T05:38:03;102504.34;;;3.16;44.91
82668;BME280;72691;51.374;-0.176;2024-01-10T05:40:29;102506.20;;;2.43;45.57
82668;BME280;72691;51.374;-0.176;2024-01-10T05:42:54;102499.40;;;3.57;43.89
82668;BME280;72691;51.374;-0.176;2024-01-10T05:45:19;102504.75;;;2.34;46.18
82668;BME280;72691;51.374;-0.176;2024-01-10T05:47:45;102503.50;;;2.38;45.95
82668;BME280;72691;51.374;-0.176;2024-01-10T05:50:16;102501.70;;;2.47;46.29
82668;BME280;72691;51.374;-0.176;2024-01-10T05:52:36;102502.52;;;2.32;46.37
82668;BME280;72691;51.374;-0.176;2024-01-10T05:55:02;102506.87;;;2.38;46.54
82668;BME280;72691;51.374;-0.176;2024-01-10T05:57:27;102509.05;;;1.78;47.84
82668;BME280;72691;51.374;-0.176;2024-01-10T05:59:53;102506.55;;;3.05;45.22
82668;BME280;72691;51.374;-0.176;2024-01-10T06:02:18;102506.81;;;2.24;45.68
82668;BME280;72691;51.374;-0.176;2024-01-10T06:04:44;102510.51;;;1.66;46.88
82668;BME280;72691;51.374;-0.176;2024-01-10T06:07:10;102504.35;;;3.07;44.68
82668;BME280;72691;51.374;-0.176;2024-01-10T06:09:35;102508.47;;;2.19;45.62
82668;BME280;72691;51.374;-0.176;2024-01-10T06:12:00;102515.61;;;1.92;46.27
82668;BME280;72691;51.374;-0.176;2024-01-10T06:14:26;102515.99;;;1.96;46.39
82668;BME280;72691;51.374;-0.176;2024-01-10T06:16:52;102513.91;;;2.39;44.90
82668;BME280;72691;51.374;-0.176;2024-01-10T06:19:17;102519.28;;;1.78;45.89
82668;BME280;72691;51.374;-0.176;2024-01-10T06:21:42;102513.25;;;2.75;44.56
82668;BME280;72691;51.374;-0.176;2024-01-10T06:24:08;102518.77;;;2.11;45.69
82668;BME280;72691;51.374;-0.176;2024-01-10T06:26:33;102517.01;;;2.95;44.19
82668;BME280;72691;51.374;-0.176;2024-01-10T06:28:59;102520.55;;;2.54;44.60
82668;BME280;72691;51.374;-0.176;2024-01-10T06:31:25;102519.56;;;2.86;44.15
82668;BME280;72691;51.374;-0.176;2024-01-10T06:33:51;102518.94;;;3.41;42.19
82668;BME280;72691;51.374;-0.176;2024-01-10T06:36:16;102522.54;;;3.58;42.30
82668;BME280;72691;51.374;-0.176;2024-01-10T06:38:42;102523.26;;;3.24;43.01
82668;BME280;72691;51.374;-0.176;2024-01-10T06:41:09;102522.60;;;3.35;42.67
82668;BME280;72691;51.374;-0.176;2024-01-10T06:43:32;102517.15;;;4.33;41.18
82668;BME280;72691;51.374;-0.176;2024-01-10T06:45:58;102517.44;;;4.27;40.44
82668;BME280;72691;51.374;-0.176;2024-01-10T06:48:28;102522.86;;;4.67;40.02
82668;BME280;72691;51.374;-0.176;2024-01-10T06:50:50;102519.50;;;4.81;39.39
82668;BME280;72691;51.374;-0.176;2024-01-10T06:53:14;102519.49;;;4.67;39.60
82668;BME280;72691;51.374;-0.176;2024-01-10T06:55:40;102519.76;;;3.43;40.97
82668;BME280;72691;51.374;-0.176;2024-01-10T06:58:05;102525.74;;;3.44;41.11
82668;BME280;72691;51.374;-0.176;2024-01-10T07:00:31;102525.84;;;4.39;39.86
82668;BME280;72691;51.374;-0.176;2024-01-10T07:03:00;102526.38;;;3.18;41.25
82668;BME280;72691;51.374;-0.176;2024-01-10T07:05:22;102526.83;;;4.09;39.90
82668;BME280;72691;51.374;-0.176;2024-01-10T07:07:48;102529.40;;;4.15;40.03
82668;BME280;72691;51.374;-0.176;2024-01-10T07:10:13;102524.81;;;4.39;39.40
82668;BME280;72691;51.374;-0.176;2024-01-10T07:12:38;102526.57;;;5.00;39.03
82668;BME280;72691;51.374;-0.176;2024-01-10T07:15:05;102525.23;;;3.82;39.92
82668;BME280;72691;51.374;-0.176;2024-01-10T07:17:29;102529.22;;;3.28;41.08
82668;BME280;72691;51.374;-0.176;2024-01-10T07:19:55;102526.91;;;2.66;41.61
82668;BME280;72691;51.374;-0.176;2024-01-10T07:22:20;102532.10;;;3.33;41.29
82668;BME280;72691;51.374;-0.176;2024-01-10T07:24:46;102534.07;;;2.81;42.51
82668;BME280;72691;51.374;-0.176;2024-01-10T07:27:12;102533.27;;;3.61;40.79
82668;BME280;72691;51.374;-0.176;2024-01-10T07:29:37;102532.96;;;3.82;40.09
82668;BME280;72691;51.374;-0.176;2024-01-10T07:32:03;102534.82;;;3.34;40.96
82668;BME280;72691;51.374;-0.176;2024-01-10T07:34:28;102532.67;;;3.80;40.38
82668;BME280;72691;51.374;-0.176;2024-01-10T07:36:54;102538.54;;;2.45;42.01
82668;BME280;72691;51.374;-0.176;2024-01-10T07:39:19;102536.58;;;3.17;41.32
82668;BME280;72691;51.374;-0.176;2024-01-10T07:41:45;102541.61;;;3.49;40.71
82668;BME280;72691;51.374;-0.176;2024-01-10T07:44:11;102541.18;;;3.40;41.15
82668;BME280;72691;51.374;-0.176;2024-01-10T07:46:36;102540.83;;;4.26;39.55
82668;BME280;72691;51.374;-0.176;2024-01-10T07:49:02;102545.50;;;2.42;41.87
82668;BME280;72691;51.374;-0.176;2024-01-10T07:51:27;102543.36;;;2.56;42.25
82668;BME280;72691;51.374;-0.176;2024-01-10T07:53:52;102550.37;;;2.66;42.44
82668;BME280;72691;51.374;-0.176;2024-01-10T07:56:18;102551.06;;;2.67;42.24
82668;BME280;72691;51.374;-0.176;2024-01-10T07:58:44;102548.75;;;3.12;41.71
82668;BME280;72691;51.374;-0.176;2024-01-10T08:01:09;102551.33;;;2.89;42.26
82668;BME280;72691;51.374;-0.176;2024-01-10T08:03:35;102551.74;;;2.94;41.86
82668;BME280;72691;51.374;-0.176;2024-01-10T08:06:01;102552.84;;;2.92;41.93
82668;BME280;72691;51.374;-0.176;2024-01-10T08:08:26;102558.76;;;2.38;43.38
82668;BME280;72691;51.374;-0.176;2024-01-10T08:10:51;102559.19;;;2.41;42.14
82668;BME280;72691;51.374;-0.176;2024-01-10T08:13:17;102558.51;;;3.06;42.21
82668;BME280;72691;51.374;-0.176;2024-01-10T08:15:42;102559.15;;;2.56;43.51
82668;BME280;72691;51.374;-0.176;2024-01-10T08:18:08;102558.35;;;1.78;44.09
82668;BME280;72691;51.374;-0.176;2024-01-10T08:20:33;102562.12;;;1.20;45.68
82668;BME280;72691;51.374;-0.176;2024-01-10T08:22:59;102565.81;;;2.45;44.02
82668;BME280;72691;51.374;-0.176;2024-01-10T08:25:25;102562.95;;;2.22;43.63
82668;BME280;72691;51.374;-0.176;2024-01-10T08:27:51;102564.77;;;2.57;43.41
82668;BME280;72691;51.374;-0.176;2024-01-10T08:30:16;102566.37;;;2.61;43.13
82668;BME280;72691;51.374;-0.176;2024-01-10T08:32:41;102565.61;;;3.51;41.52
82668;BME280;72691;51.374;-0.176;2024-01-10T08:35:07;102574.20;;;2.69;42.94
82668;BME280;72691;51.374;-0.176;2024-01-10T08:37:32;102581.44;;;1.09;45.27
82668;BME280;72691;51.374;-0.176;2024-01-10T08:39:58;102580.77;;;1.95;44.90
82668;BME280;72691;51.374;-0.176;2024-01-10T08:42:24;102583.42;;;1.94;44.58
82668;BME280;72691;51.374;-0.176;2024-01-10T08:44:49;102580.46;;;1.89;45.52
82668;BME280;72691;51.374;-0.176;2024-01-10T08:47:14;102582.31;;;1.28;46.06
82668;BME280;72691;51.374;-0.176;2024-01-10T08:49:40;102578.69;;;2.89;43.41
82668;BME280;72691;51.374;-0.176;2024-01-10T08:52:06;102586.62;;;2.44;43.54
82668;BME280;72691;51.374;-0.176;2024-01-10T08:54:31;102584.49;;;1.95;45.34
82668;BME280;72691;51.374;-0.176;2024-01-10T08:56:56;102580.96;;;2.17;44.65
82668;BME280;72691;51.374;-0.176;2024-01-10T08:59:22;102581.66;;;2.59;43.74
82668;BME280;72691;51.374;-0.176;2024-01-10T09:01:48;102579.79;;;2.34;43.44
82668;BME280;72691;51.374;-0.176;2024-01-10T09:04:13;102583.55;;;2.33;44.52
82668;BME280;72691;51.374;-0.176;2024-01-10T09:06:39;102580.10;;;2.12;44.91
82668;BME280;72691;51.374;-0.176;2024-01-10T09:09:04;102576.60;;;2.50;43.94
82668;BME280;72691;51.374;-0.176;2024-01-10T09:11:30;102577.61;;;1.92;45.19
82668;BME280;72691;51.374;-0.176;2024-01-10T09:13:55;102578.62;;;1.85;45.09
82668;BME280;72691;51.374;-0.176;2024-01-10T09:16:21;102577.85;;;2.06;44.86
82668;BME280;72691;51.374;-0.176;2024-01-10T09:18:46;102578.21;;;2.54;44.06
82668;BME280;72691;51.374;-0.176;2024-01-10T09:21:12;102573.80;;;2.38;44.44
82668;BME280;72691;51.374;-0.176;2024-01-10T09:23:37;102569.79;;;3.77;42.34
82668;BME280;72691;51.374;-0.176;2024-01-10T09:26:03;102575.54;;;2.07;44.16
82668;BME280;72691;51.374;-0.176;2024-01-10T09:28:28;102573.17;;;1.24;46.04
82668;BME280;72691;51.374;-0.176;2024-01-10T09:30:54;102575.91;;;2.10;44.78
82668;BME280;72691;51.374;-0.176;2024-01-10T09:33:20;102572.20;;;2.60;43.66
82668;BME280;72691;51.374;-0.176;2024-01-10T09:35:45;102570.86;;;3.94;41.77
82668;BME280;72691;51.374;-0.176;2024-01-10T09:38:10;102576.02;;;2.10;44.44
82668;BME280;72691;51.374;-0.176;2024-01-10T09:40:36;102578.80;;;2.53;43.96
82668;BME280;72691;51.374;-0.176;2024-01-10T09:43:02;102580.00;;;2.52;43.80
82668;BME280;72691;51.374;-0.176;2024-01-10T09:45:28;102572.11;;;4.08;41.49
82668;BME280;72691;51.374;-0.176;2024-01-10T09:47:55;102574.41;;;4.74;39.12
82668;BME280;72691;51.374;-0.176;2024-01-10T09:50:18;102571.37;;;3.37;41.64
82668;BME280;72691;51.374;-0.176;2024-01-10T09:52:50;102567.30;;;3.88;40.77
82668;BME280;72691;51.374;-0.176;2024-01-10T09:55:09;102577.95;;;3.67;41.88
82668;BME280;72691;51.374;-0.176;2024-01-10T09:57:34;102575.52;;;3.96;41.44
82668;BME280;72691;51.374;-0.176;2024-01-10T09:59:59;102568.83;;;5.12;39.36
82668;BME280;72691;51.374;-0.176;2024-01-10T10:02:25;102570.64;;;5.04;39.74
82668;BME280;72691;51.374;-0.176;2024-01-10T10:04:56;102568.03;;;5.12;38.21
82668;BME280;72691;51.374;-0.176;2024-01-10T10:07:16;102570.92;;;5.59;38.60
82668;BME280;72691;51.374;-0.176;2024-01-10T10:09:43;102571.13;;;5.48;38.38
82668;BME280;72691;51.374;-0.176;2024-01-10T10:12:07;102572.61;;;5.39;37.77
82668;BME280;72691;51.374;-0.176;2024-01-10T10:14:33;102578.27;;;4.68;38.99
82668;BME280;72691;51.374;-0.176;2024-01-10T10:19:24;102577.64;;;6.06;37.29
82668;BME280;72691;51.374;-0.176;2024-01-10T10:21:50;102576.78;;;5.19;38.68
82668;BME280;72691;51.374;-0.176;2024-01-10T10:24:15;102576.71;;;5.41;38.49
82668;BME280;72691;51.374;-0.176;2024-01-10T10:26:40;102579.85;;;5.67;37.37
82668;BME280;72691;51.374;-0.176;2024-01-10T10:29:05;102576.90;;;4.36;40.58
82668;BME280;72691;51.374;-0.176;2024-01-10T10:31:31;102577.38;;;5.29;39.41
82668;BME280;72691;51.374;-0.176;2024-01-10T10:33:59;102569.63;;;6.04;37.84
82668;BME280;72691;51.374;-0.176;2024-01-10T10:36:22;102570.32;;;5.46;38.91
82668;BME280;72691;51.374;-0.176;2024-01-10T10:38:48;102571.32;;;7.17;36.20
82668;BME280;72691;51.374;-0.176;2024-01-10T10:41:14;102567.11;;;6.87;36.55
82668;BME280;72691;51.374;-0.176;2024-01-10T10:43:39;102570.66;;;6.83;36.97
82668;BME280;72691;51.374;-0.176;2024-01-10T10:46:05;102567.00;;;7.15;36.24
82668;BME280;72691;51.374;-0.176;2024-01-10T10:48:32;102570.84;;;7.17;36.24
82668;BME280;72691;51.374;-0.176;2024-01-10T10:51:04;102572.43;;;7.64;35.48
82668;BME280;72691;51.374;-0.176;2024-01-10T10:53:21;102566.98;;;8.08;34.41
82668;BME280;72691;51.374;-0.176;2024-01-10T10:55:46;102569.42;;;6.63;36.81
82668;BME280;72691;51.374;-0.176;2024-01-10T10:58:12;102560.46;;;8.65;34.29
82668;BME280;72691;51.374;-0.176;2024-01-10T11:00:38;102560.34;;;7.43;35.44
82668;BME280;72691;51.374;-0.176;2024-01-10T11:03:03;102551.35;;;6.54;35.46
82668;BME280;72691;51.374;-0.176;2024-01-10T11:05:28;102547.17;;;8.54;33.63
82668;BME280;72691;51.374;-0.176;2024-01-10T11:07:54;102554.32;;;7.79;34.92
82668;BME280;72691;51.374;-0.176;2024-01-10T11:10:23;102557.58;;;6.60;36.45
82668;BME280;72691;51.374;-0.176;2024-01-10T11:12:58;102549.78;;;8.01;35.29
82668;BME280;72691;51.374;-0.176;2024-01-10T11:15:20;102544.83;;;9.43;33.36
82668;BME280;72691;51.374;-0.176;2024-01-10T11:17:50;102544.04;;;8.65;34.79
82668;BME280;72691;51.374;-0.176;2024-01-10T11:22:40;102540.93;;;7.97;34.39
82668;BME280;72691;51.374;-0.176;2024-01-10T11:24:52;102539.52;;;8.58;33.16
82668;BME280;72691;51.374;-0.176;2024-01-10T11:27:18;102541.79;;;7.41;35.72
82668;BME280;72691;51.374;-0.176;2024-01-10T11:29:46;102536.56;;;8.35;34.06
82668;BME280;72691;51.374;-0.176;2024-01-10T11:32:14;102535.32;;;8.57;33.89
82668;BME280;72691;51.374;-0.176;2024-01-10T11:34:35;102540.51;;;8.20;35.04
82668;BME280;72691;51.374;-0.176;2024-01-10T11:37:09;102540.95;;;8.49;33.39
82668;BME280;72691;51.374;-0.176;2024-01-10T11:39:24;102536.84;;;8.69;34.45
82668;BME280;72691;51.374;-0.176;2024-01-10T11:41:50;102537.82;;;8.39;34.70
82668;BME280;72691;51.374;-0.176;2024-01-10T11:44:26;102533.45;;;8.99;33.28
82668;BME280;72691;51.374;-0.176;2024-01-10T11:46:43;102532.90;;;8.75;33.15
82668;BME280;72691;51.374;-0.176;2024-01-10T11:49:07;102528.35;;;8.64;33.42
82668;BME280;72691;51.374;-0.176;2024-01-10T11:51:33;102531.29;;;7.99;35.12
82668;BME280;72691;51.374;-0.176;2024-01-10T11:53:57;102531.07;;;7.56;34.99
82668;BME280;72691;51.374;-0.176;2024-01-10T11:56:23;102525.67;;;8.92;34.22
82668;BME280;72691;51.374;-0.176;2024-01-10T11:58:55;102525.66;;;9.65;32.94
82668;BME280;72691;51.374;-0.176;2024-01-10T12:01:14;102513.63;;;8.83;33.93
82668;BME280;72691;51.374;-0.176;2024-01-10T12:03:39;102512.83;;;7.53;35.30
82668;BME280;72691;51.374;-0.176;2024-01-10T12:06:05;102505.61;;;8.76;33.27
82668;BME280;72691;51.374;-0.176;2024-01-10T12:08:30;102501.93;;;8.05;34.59
82668;BME280;72691;51.374;-0.176;2024-01-10T12:10:55;102497.97;;;8.40;33.95
82668;BME280;72691;51.374;-0.176;2024-01-10T12:13:21;102496.95;;;7.43;34.72
82668;BME280;72691;51.374;-0.176;2024-01-10T12:15:46;102495.33;;;7.46;36.31
82668;BME280;72691;51.374;-0.176;2024-01-10T12:18:11;102505.54;;;6.51;37.36
82668;BME280;72691;51.374;-0.176;2024-01-10T12:20:37;102489.68;;;7.65;36.11
82668;BME280;72691;51.374;-0.176;2024-01-10T12:23:03;102486.74;;;7.91;34.95
82668;BME280;72691;51.374;-0.176;2024-01-10T12:25:28;102484.38;;;7.26;35.89
82668;BME280;72691;51.374;-0.176;2024-01-10T12:27:53;102487.25;;;6.25;37.26
82668;BME280;72691;51.374;-0.176;2024-01-10T12:30:20;102481.11;;;7.06;36.73
82668;BME280;72691;51.374;-0.176;2024-01-10T12:32:44;102486.01;;;7.49;36.07
82668;BME280;72691;51.374;-0.176;2024-01-10T12:35:10;102486.27;;;7.44;35.19
82668;BME280;72691;51.374;-0.176;2024-01-10T12:37:35;102483.37;;;7.14;35.05
82668;BME280;72691;51.374;-0.176;2024-01-10T12:40:02;102484.36;;;6.68;36.22
82668;BME280;72691;51.374;-0.176;2024-01-10T12:42:26;102485.12;;;6.82;37.13
82668;BME280;72691;51.374;-0.176;2024-01-10T12:44:53;102483.55;;;6.69;36.58